Time;durP1;ratioP1;P1;durP2;ratioP2;P2;SDS_P1;SDS_P2;PMS_P1;PMS_P2;Temp;Humidity;BMP_temperature;BMP_pressure;BME280_temperature;BME280_humidity;BME280_pressure;Samples;Min_cycle;Max_cycle;Signal;HPM_P1;HPM_P2
2022/05/26 00:00:56;;;;;;;5.90;4.50;;;;;;;7.77;67.21;100866.09;5113332;28;20387;-66
2022/05/26 00:03:21;;;;;;;7.00;5.53;;;;;;;7.79;67.80;100873.91;5113701;28;20549;-64
2022/05/26 00:05:47;;;;;;;7.27;4.57;;;;;;;7.78;67.23;100870.44;5113410;28;20043;-63
2022/05/26 00:08:13;;;;;;;5.87;4.70;;;;;;;7.73;67.83;100869.19;5095095;28;20522;-64
2022/05/26 00:10:39;;;;;;;8.43;4.43;;;;;;;7.74;67.73;100869.03;5113605;28;20073;-63
2022/05/26 00:13:05;;;;;;;8.53;5.23;;;;;;;7.74;67.41;100874.34;5113157;28;20440;-64
2022/05/26 00:15:32;;;;;;;8.17;4.60;;;;;;;7.73;67.52;100867.38;5113727;28;20036;-64
2022/05/26 00:17:58;;;;;;;9.20;4.67;;;;;;;7.72;68.55;100854.25;5113481;28;20412;-63
2022/05/26 00:20:23;;;;;;;19.10;5.57;;;;;;;7.67;67.53;100846.75;5113315;28;20116;-63
2022/05/26 00:22:49;;;;;;;6.97;3.97;;;;;;;7.67;68.45;100849.38;5113047;28;20486;-65
2022/05/26 00:25:14;;;;;;;7.57;4.00;;;;;;;7.68;68.20;100848.41;5112654;28;20039;-67
2022/05/26 00:27:40;;;;;;;10.20;4.33;;;;;;;7.64;67.79;100836.41;5112427;28;20027;-64
2022/05/26 00:30:06;;;;;;;9.33;3.73;;;;;;;7.59;67.77;100828.06;5113023;28;20088;-64
2022/05/26 00:32:32;;;;;;;8.07;4.70;;;;;;;7.62;67.31;100833.06;5112991;28;20122;-64
2022/05/26 00:34:57;;;;;;;8.33;4.80;;;;;;;7.58;67.92;100822.91;5112881;28;20127;-65
2022/05/26 00:37:23;;;;;;;6.53;3.83;;;;;;;7.61;67.66;100819.97;5112745;28;20035;-64
2022/05/26 00:39:48;;;;;;;6.37;3.80;;;;;;;7.59;67.49;100819.28;5112804;28;20078;-63
2022/05/26 00:42:15;;;;;;;6.70;3.87;;;;;;;7.58;67.79;100815.78;5112731;28;20046;-63
2022/05/26 00:44:42;;;;;;;10.03;4.17;;;;;;;7.58;67.82;100821.09;5113099;28;20039;-64
2022/05/26 00:47:27;;;;;;;6.77;4.60;;;;;;;7.58;67.59;100809.66;5112879;28;20402;-65
2022/05/26 00:50:07;;;;;;;5.83;4.00;;;;;;;7.42;67.80;100789.03;5112785;28;20091;-65
2022/05/26 00:52:42;;;;;;;6.37;3.80;;;;;;;7.50;68.09;100805.03;5112635;28;20038;-64
2022/05/26 00:55:13;;;;;;;7.07;4.20;;;;;;;7.52;68.41;100810.19;5112979;28;20028;-65
2022/05/26 00:57:49;;;;;;;8.17;3.87;;;;;;;7.49;68.00;100800.72;5113189;28;20118;-64
2022/05/26 01:00:17;;;;;;;7.23;4.00;;;;;;;7.42;67.59;100803.09;5112906;28;20622;-63
2022/05/26 01:03:41;;;;;;;5.60;3.33;;;;;;;7.50;68.23;100809.50;5112844;28;20072;-63
2022/05/26 01:06:18;;;;;;;10.10;3.90;;;;;;;7.51;67.80;100804.06;5009952;28;20051;-65
2022/05/26 01:08:54;;;;;;;9.07;3.70;;;;;;;7.47;67.88;100798.22;5010089;28;20046;-65
2022/05/26 01:11:20;;;;;;;7.73;4.00;;;;;;;7.49;67.91;100795.41;5072341;28;20436;-65
2022/05/26 01:13:53;;;;;;;11.17;4.80;;;;;;;7.54;67.62;100808.28;5112585;28;20046;-64
2022/05/26 01:16:46;;;;;;;8.67;4.37;;;;;;;7.60;67.94;100815.66;5112739;28;20039;-65
2022/05/26 01:19:54;;;;;;;9.37;4.23;;;;;;;7.60;67.78;100799.75;5112224;28;20516;-65
2022/05/26 01:22:44;;;;;;;7.53;4.50;;;;;;;7.61;67.83;100802.25;5112378;28;20037;-64
2022/05/26 01:25:28;;;;;;;10.30;4.93;;;;;;;7.60;67.47;100795.28;5112311;28;20032;-64
2022/05/26 01:28:30;;;;;;;6.30;3.50;;;;;;;7.57;68.11;100792.91;5112176;28;20027;-64
2022/05/26 01:31:07;;;;;;;10.67;3.53;;;;;;;7.59;67.50;100774.22;5112613;28;20032;-63
2022/05/26 01:33:41;;;;;;;6.03;3.33;;;;;;;7.54;67.17;100765.88;5112500;28;20122;-64
2022/05/26 01:36:44;;;;;;;4.67;3.40;;;;;;;7.59;66.96;100769.75;5112203;28;20035;-65
2022/05/26 01:39:32;;;;;;;6.23;3.53;;;;;;;7.65;66.64;100774.47;5116576;28;20031;-65
2022/05/26 01:42:07;;;;;;;5.83;3.17;;;;;;;7.64;66.90;100764.84;5116435;28;20036;-65
2022/05/26 01:45:05;;;;;;;5.63;4.07;;;;;;;7.58;66.87;100754.84;5116429;28;20050;-63
2022/05/26 01:47:49;;;;;;;8.40;3.80;;;;;;;7.53;66.93;100746.47;5116192;28;20538;-64
2022/05/26 01:50:20;;;;;;;10.20;3.33;;;;;;;7.57;67.40;100745.22;5116349;28;20570;-66
2022/05/26 01:53:13;;;;;;;6.97;3.37;;;;;;;7.53;67.13;100719.97;5115966;28;20078;-65
2022/05/26 01:55:47;;;;;;;8.23;2.80;;;;;;;7.55;67.01;100719.84;5101578;28;20543;-62
2022/05/26 01:58:21;;;;;;;5.33;3.27;;;;;;;7.56;66.93;100714.38;5116246;28;20122;-65
2022/05/26 02:00:47;;;;;;;9.17;2.87;;;;;;;7.55;66.86;100699.47;5115918;28;20050;-63
2022/05/26 02:03:20;;;;;;;5.13;2.73;;;;;;;7.62;66.02;100694.41;5115881;28;20483;-65
2022/05/26 02:05:52;;;;;;;5.43;2.80;;;;;;;7.53;66.47;100674.94;5097623;28;20378;-64
2022/05/26 02:08:24;;;;;;;5.30;2.80;;;;;;;7.77;66.45;100696.44;5115992;28;20478;-65
2022/05/26 02:10:55;;;;;;;4.50;2.67;;;;;;;7.85;66.28;100690.41;5116078;28;20398;-63
2022/05/26 02:13:29;;;;;;;5.67;3.10;;;;;;;7.97;65.43;100691.06;5115749;28;20031;-66
2022/05/26 02:16:05;;;;;;;7.03;3.00;;;;;;;8.10;65.39;100688.06;5115626;28;20118;-62
2022/05/26 02:18:48;;;;;;;8.67;3.27;;;;;;;8.21;65.07;100685.19;5116202;28;20073;-65
2022/05/26 02:21:19;;;;;;;7.90;3.07;;;;;;;8.29;64.76;100690.59;5115631;28;20042;-64
2022/05/26 02:23:58;;;;;;;11.23;3.97;;;;;;;8.35;64.33;100685.53;5115845;28;20050;-64
2022/05/26 02:26:23;;;;;;;6.90;3.20;;;;;;;8.32;64.31;100677.84;5115334;28;20103;-64
2022/05/26 02:31:37;;;;;;;7.13;3.63;;;;;;;8.38;64.18;100671.13;5073304;28;20048;-63
2022/05/26 02:34:04;;;;;;;5.28;3.05;;;;;;;8.37;63.77;100665.00;5115356;28;20067;-63
2022/05/26 02:36:33;;;;;;;3.70;2.63;;;;;;;8.37;64.50;100667.66;5115271;28;20039;-65
2022/05/26 02:38:58;;;;;;;6.97;3.63;;;;;;;8.47;64.26;100664.94;5096740;28;20493;-62
2022/05/26 02:41:24;;;;;;;7.17;2.93;;;;;;;8.49;63.84;100659.47;5114961;28;20043;-64
2022/05/26 02:43:51;;;;;;;7.10;2.87;;;;;;;8.49;63.82;100662.97;5115556;28;20042;-64
2022/05/26 02:47:19;;;;;;;4.83;2.80;;;;;;;8.48;63.63;100660.47;5114997;28;20042;-65
2022/05/26 02:49:54;;;;;;;6.27;2.93;;;;;;;8.47;63.58;100656.16;5077738;28;20116;-63
2022/05/26 02:52:52;;;;;;;5.40;3.47;;;;;;;8.50;63.60;100661.16;5114949;28;20047;-62
2022/05/26 02:55:41;;;;;;;3.70;2.30;;;;;;;8.52;63.65;100667.13;5097781;28;20032;-63
2022/05/26 02:58:13;;;;;;;5.83;2.73;;;;;;;8.51;63.38;100654.84;5115323;28;20059;-63
2022/05/26 03:00:50;;;;;;;6.13;3.10;;;;;;;8.52;63.49;100656.53;5114504;28;20490;-65
2022/05/26 03:03:25;;;;;;;5.27;2.63;;;;;;;8.42;63.53;100624.75;5114721;28;20059;-64
2022/05/26 03:05:51;;;;;;;5.20;2.40;;;;;;;8.72;63.18;100649.25;5114417;28;20084;-66
2022/05/26 03:08:23;;;;;;;5.80;3.37;;;;;;;8.83;62.69;100648.97;5114776;28;20044;-65
2022/05/26 03:10:52;;;;;;;4.93;2.73;;;;;;;8.81;62.10;100638.53;5114772;28;20039;-64
2022/05/26 03:13:18;;;;;;;4.70;2.60;;;;;;;8.80;62.15;100634.19;5114620;28;20490;-64
2022/05/26 03:15:44;;;;;;;3.40;2.70;;;;;;;8.78;62.38;100638.00;5114387;28;20031;-65
2022/05/26 03:18:10;;;;;;;5.10;2.47;;;;;;;8.77;62.83;100626.53;5114398;28;20035;-66
2022/05/26 03:20:37;;;;;;;4.07;3.00;;;;;;;8.80;61.72;100634.19;5114256;28;20532;-65
2022/05/26 03:23:03;;;;;;;3.07;2.20;;;;;;;8.80;62.60;100625.41;5114369;28;20128;-65
2022/05/26 03:25:29;;;;;;;3.63;2.30;;;;;;;8.80;62.74;100618.25;5114073;28;20428;-65
2022/05/26 03:27:54;;;;;;;4.57;2.73;;;;;;;8.82;62.55;100610.97;5095751;28;20030;-64
2022/05/26 03:30:20;;;;;;;4.50;2.30;;;;;;;8.88;62.18;100622.78;5114201;28;20043;-65
2022/05/26 03:32:46;;;;;;;3.93;2.30;;;;;;;8.82;62.87;100600.34;5113949;28;20036;-64
2022/05/26 03:40:49;;;;;;;2.47;2.27;;;;;;;8.87;62.05;100591.91;5114022;28;20028;-64
2022/05/26 03:43:16;;;;;;;4.53;2.30;;;;;;;8.97;61.50;100606.78;5114615;28;20032;-67
2022/05/26 03:45:42;;;;;;;6.40;2.80;;;;;;;8.97;62.55;100614.75;5095863;28;20036;-65
2022/05/26 03:48:09;;;;;;;2.70;2.07;;;;;;;8.95;62.59;100605.25;5114266;28;20044;-63
2022/05/26 03:50:35;;;;;;;4.90;2.00;;;;;;;8.93;62.26;100597.44;5114195;28;20070;-64
2022/05/26 03:53:01;;;;;;;4.97;2.10;;;;;;;8.95;62.36;100590.13;5113764;28;20079;-65
2022/05/26 03:55:27;;;;;;;7.00;2.87;;;;;;;8.98;62.47;100589.84;5113655;28;20079;-65
2022/05/26 03:57:52;;;;;;;4.13;2.20;;;;;;;9.07;62.18;100600.53;5113433;28;20035;-65
2022/05/26 04:00:21;;;;;;;4.57;2.07;;;;;;;9.10;61.84;100590.41;5113805;28;20043;-66
2022/05/26 04:02:48;;;;;;;3.93;2.50;;;;;;;9.18;61.62;100595.75;5113506;28;20035;-64
2022/05/26 04:05:13;;;;;;;4.20;1.97;;;;;;;9.25;61.79;100587.97;5113516;28;20035;-65
2022/05/26 04:07:41;;;;;;;4.10;2.80;;;;;;;9.38;61.08;100595.53;5113398;28;20083;-64
2022/05/26 04:10:11;;;;;;;3.67;1.83;;;;;;;9.45;61.78;100581.44;5113121;28;20414;-63
2022/05/26 04:12:38;;;;;;;3.73;1.90;;;;;;;9.70;60.93;100597.50;5112920;28;20443;-65
2022/05/26 04:15:06;;;;;;;3.37;2.30;;;;;;;9.82;60.13;100594.38;5113096;28;20032;-64
2022/05/26 04:17:33;;;;;;;4.35;2.38;;;;;;;9.88;60.66;100587.59;5113208;28;20498;-63
2022/05/26 04:19:58;;;;;;;6.33;2.67;;;;;;;9.93;59.98;100585.28;5113214;28;20482;-65
2022/05/26 04:22:24;;;;;;;5.40;2.20;;;;;;;9.96;60.15;100576.97;5113219;28;20070;-67
2022/05/26 04:24:53;;;;;;;4.00;2.33;;;;;;;9.91;59.76;100577.47;5113743;28;20035;-65
2022/05/26 04:27:21;;;;;;;5.57;2.00;;;;;;;9.81;60.38;100570.59;5112713;28;20081;-68
2022/05/26 04:29:47;;;;;;;9.30;2.20;;;;;;;9.72;60.37;100567.09;5113418;28;20031;-65
2022/05/26 04:32:13;;;;;;;6.67;2.20;;;;;;;9.70;61.04;100562.94;5113173;28;20402;-67
2022/05/26 04:34:39;;;;;;;5.13;2.00;;;;;;;9.70;61.18;100562.94;5112983;28;20070;-63
2022/05/26 04:37:05;;;;;;;10.60;2.47;;;;;;;9.57;61.16;100542.97;5112859;28;20039;-67
2022/05/26 04:39:32;;;;;;;6.60;1.70;;;;;;;9.69;61.18;100555.94;5112842;28;20081;-70
2022/05/26 04:42:03;;;;;;;4.50;2.57;;;;;;;9.68;60.41;100554.28;5112908;28;20043;-67
2022/05/26 04:44:31;;;;;;;9.27;2.70;;;;;;;9.61;61.40;100546.97;5113558;28;20145;-69
2022/05/26 04:46:57;;;;;;;2.90;1.77;;;;;;;9.63;61.81;100542.31;5112865;28;20088;-67
2022/05/26 04:49:23;;;;;;;11.20;2.60;;;;;;;9.62;61.15;100547.78;5112955;28;20269;-67
2022/05/26 04:51:48;;;;;;;2.90;1.97;;;;;;;9.62;61.23;100539.81;5112698;28;20038;-67
2022/05/26 04:54:14;;;;;;;13.73;2.30;;;;;;;9.61;61.41;100540.81;5112436;28;20035;-68
2022/05/26 04:56:39;;;;;;;3.50;2.00;;;;;;;9.69;61.83;100545.31;5112462;28;20031;-67
2022/05/26 04:59:06;;;;;;;5.60;2.80;;;;;;;9.73;61.96;100536.00;5112691;28;20107;-66
2022/05/26 05:01:32;;;;;;;9.40;3.23;;;;;;;9.78;61.23;100536.34;5112757;28;20039;-68
2022/05/26 05:03:57;;;;;;;4.50;2.77;;;;;;;9.71;60.91;100522.03;5112638;28;20123;-65
2022/05/26 05:06:24;;;;;;;7.77;2.23;;;;;;;9.71;61.49;100532.69;5113857;28;20071;-67
2022/05/26 05:08:50;;;;;;;2.73;2.13;;;;;;;9.73;61.37;100525.38;5114051;28;20473;-68
2022/05/26 05:11:16;;;;;;;2.97;1.80;;;;;;;9.82;60.86;100529.72;5112410;28;20038;-66
2022/05/26 05:13:41;;;;;;;3.20;2.20;;;;;;;9.90;61.04;100527.09;5111960;28;20041;-66
2022/05/26 05:16:30;;;;;;;4.63;2.13;;;;;;;9.97;60.84;100538.72;5112574;28;20032;-66
2022/05/26 05:18:57;;;;;;;4.65;2.00;;;;;;;10.01;61.22;100523.25;5112089;28;20039;-66
2022/05/26 05:21:51;;;;;;;6.00;2.43;;;;;;;10.10;60.75;100533.75;5093675;28;20122;-64
2022/05/26 05:24:29;;;;;;;15.73;3.20;;;;;;;10.02;60.72;100514.28;5093973;28;20040;-67
2022/05/26 05:27:01;;;;;;;4.23;2.03;;;;;;;10.06;60.43;100527.09;5111961;28;20512;-72
2022/05/26 05:29:32;;;;;;;3.20;1.80;;;;;;;10.14;60.17;100513.81;5094954;28;20119;-64
2022/05/26 05:32:02;;;;;;;6.37;2.17;;;;;;;10.16;60.67;100503.84;5113077;28;20046;-65
2022/05/26 05:34:36;;;;;;;4.77;2.33;;;;;;;10.18;60.41;100511.66;5111877;28;20114;-70
2022/05/26 05:37:02;;;;;;;5.00;3.00;;;;;;;10.17;60.06;100486.88;5112071;28;20027;-69
2022/05/26 05:39:28;;;;;;;8.27;2.47;;;;;;;10.41;59.93;100504.69;5110506;28;20112;-64
2022/05/26 05:41:55;;;;;;;2.73;2.10;;;;;;;10.42;59.35;100502.88;5111435;28;20506;-66
2022/05/26 05:44:22;;;;;;;4.27;2.10;;;;;;;10.36;60.34;100517.66;5112858;28;20065;-65
2022/05/26 05:46:53;;;;;;;1.93;1.73;;;;;;;10.24;60.05;100495.03;5112275;28;20046;-67
2022/05/26 05:49:24;;;;;;;3.27;2.23;;;;;;;10.43;59.44;100512.50;5112029;28;20043;-67
2022/05/26 05:51:51;;;;;;;6.13;1.60;;;;;;;10.54;59.17;100507.66;5111636;28;20448;-68
2022/05/26 05:54:17;;;;;;;4.53;1.90;;;;;;;10.66;59.26;100501.97;5111951;28;20038;-65
2022/05/26 05:56:44;;;;;;;9.23;2.97;;;;;;;10.85;58.70;100502.44;5111660;28;20558;-65
2022/05/26 05:59:12;;;;;;;4.23;2.67;;;;;;;10.97;58.93;100496.72;5111971;28;20031;-69
2022/05/26 06:01:38;;;;;;;7.28;2.45;;;;;;;11.01;57.77;100496.25;5112330;28;20122;-70
2022/05/26 06:04:03;;;;;;;9.77;3.70;;;;;;;10.99;57.97;100498.25;5112663;28;20119;-68
2022/05/26 06:06:39;;;;;;;13.73;3.70;;;;;;;11.05;58.46;100470.91;5112465;28;20059;-75
2022/05/26 06:09:05;;;;;;;11.50;4.97;;;;;;;11.26;58.24;100478.28;5111817;28;20457;-65
2022/05/26 06:11:31;;;;;;;12.23;4.87;;;;;;;11.36;57.16;100473.59;5111387;28;20027;-71
2022/05/26 06:13:57;;;;;;;5.70;3.73;;;;;;;11.42;56.99;100464.91;5093987;28;20039;-74
2022/05/26 06:16:23;;;;;;;6.80;3.37;;;;;;;11.46;56.67;100468.03;5111934;28;20514;-67
2022/05/26 06:18:50;;;;;;;11.53;5.97;;;;;;;11.54;56.75;100464.47;5111659;28;20096;-68
2022/05/26 06:21:16;;;;;;;6.47;4.67;;;;;;;11.63;56.06;100463.44;5111811;28;20119;-68
2022/05/26 06:23:42;;;;;;;8.33;3.97;;;;;;;11.59;57.28;100454.13;5111794;28;20121;-68
2022/05/26 06:26:08;;;;;;;8.77;4.57;;;;;;;11.61;56.04;100444.94;5115155;28;20036;-68
2022/05/26 06:31:20;;;;;;;7.00;3.60;;;;;;;11.21;57.25;100390.03;5115613;28;20437;-65
2022/05/26 06:39:14;;;;;;;5.13;2.77;;;;;;;11.46;56.96;100426.19;5115072;28;20034;-65
2022/05/26 06:44:23;;;;;;;9.10;2.53;;;;;;;11.67;56.98;100427.41;5115155;28;20040;-69
2022/05/26 06:46:49;;;;;;;5.70;2.67;;;;;;;11.75;57.05;100424.66;5097195;28;20043;-67
2022/05/26 06:49:15;;;;;;;4.33;2.53;;;;;;;11.84;56.22;100428.13;5115026;28;20078;-67
2022/05/26 06:51:43;;;;;;;5.50;2.43;;;;;;;11.89;56.92;100426.59;5114904;28;20027;-67
2022/05/26 06:54:10;;;;;;;;;;;;;;;12.02;56.01;100421.47;5097689;28;20104;-67
2022/05/26 06:56:36;;;;;;;16.13;3.60;;;;;;;12.14;57.21;100424.53;5114648;28;19923;-64
2022/05/26 06:59:02;;;;;;;10.73;4.00;;;;;;;12.25;56.52;100415.28;5096542;28;20028;-66
2022/05/26 07:01:27;;;;;;;9.10;2.93;;;;;;;12.35;55.89;100415.81;5114813;28;20034;-68
2022/05/26 07:03:53;;;;;;;6.53;3.00;;;;;;;12.41;56.10;100423.09;5114480;28;20622;-66
2022/05/26 07:06:24;;;;;;;13.30;3.37;;;;;;;12.50;55.56;100419.34;5114115;28;20051;-68
2022/05/26 07:08:51;;;;;;;20.13;3.30;;;;;;;12.57;56.43;100422.13;5114508;28;20071;-69
2022/05/26 07:11:17;;;;;;;7.93;3.13;;;;;;;12.60;55.35;100414.56;5114689;28;20035;-69
2022/05/26 07:13:43;;;;;;;3.40;2.57;;;;;;;12.57;54.83;100406.91;5114356;28;20042;-72
2022/05/26 07:16:10;;;;;;;10.73;2.50;;;;;;;12.69;55.14;100426.81;5114774;28;20040;-75
2022/05/26 07:18:39;;;;;;;8.13;2.67;;;;;;;12.63;54.82;100424.88;5114458;28;20035;-68
2022/05/26 07:21:06;;;;;;;9.53;2.90;;;;;;;12.70;54.74;100428.47;5114494;28;20483;-67
2022/05/26 07:23:33;;;;;;;29.20;11.40;;;;;;;12.82;55.06;100411.97;5114351;28;20069;-67
2022/05/26 07:25:58;;;;;;;9.97;2.87;;;;;;;12.94;53.94;100421.19;5114327;28;20035;-66
2022/05/26 07:28:24;;;;;;;6.10;2.83;;;;;;;13.02;53.17;100407.72;5114165;28;20413;-68
2022/05/26 07:30:52;;;;;;;3.83;2.60;;;;;;;13.05;52.86;100402.00;5114309;28;20035;-69
2022/05/26 07:33:19;;;;;;;6.03;1.80;;;;;;;13.12;53.08;100405.56;5114258;28;20557;-66
2022/05/26 07:35:45;;;;;;;5.53;2.23;;;;;;;13.16;52.83;100393.50;5113899;28;20101;-67
2022/05/26 07:43:40;;;;;;;4.77;2.13;;;;;;;13.37;53.15;100392.72;5115906;28;20031;-69
2022/05/26 07:46:06;;;;;;;5.37;2.73;;;;;;;13.46;52.94;100390.75;5114635;28;20044;-67
2022/05/26 07:48:31;;;;;;;5.90;1.90;;;;;;;13.42;52.26;100378.78;5096211;28;20093;-71
2022/05/26 07:50:57;;;;;;;11.00;2.27;;;;;;;13.48;51.93;100376.16;5095913;28;20100;-68
2022/05/26 07:53:23;;;;;;;4.30;1.90;;;;;;;13.55;51.96;100381.56;5113940;28;20039;-72
2022/05/26 07:55:48;;;;;;;4.63;1.90;;;;;;;13.51;51.41;100366.94;5113858;28;20455;-69
2022/05/26 07:58:14;;;;;;;4.97;2.57;;;;;;;13.57;51.86;100374.19;5113578;28;20046;-75
2022/05/26 08:00:41;;;;;;;8.37;2.10;;;;;;;13.54;50.85;100353.16;5113515;28;20035;-72
2022/05/26 08:03:07;;;;;;;3.20;1.70;;;;;;;13.74;51.03;100369.41;5113979;28;20485;-72
2022/05/26 08:05:33;;;;;;;2.67;1.53;;;;;;;13.77;50.24;100369.03;5113361;28;20039;-71
2022/05/26 08:07:59;;;;;;;2.73;1.87;;;;;;;13.79;50.86;100367.81;5113315;28;20055;-75
2022/05/26 08:10:25;;;;;;;4.10;1.83;;;;;;;13.88;49.92;100358.63;5113839;28;20398;-73
2022/05/26 08:12:50;;;;;;;3.60;2.40;;;;;;;13.88;49.55;100369.34;5120447;28;20417;-73
2022/05/26 08:15:31;;;;;;;5.53;1.80;;;;;;;13.80;50.35;100368.63;5113859;28;20040;-74
2022/05/26 08:17:57;;;;;;;6.03;2.13;;;;;;;13.59;49.59;100337.38;5077967;28;20042;-73
2022/05/26 08:20:24;;;;;;;2.70;2.07;;;;;;;13.77;50.37;100372.53;5113227;28;20032;-71
2022/05/26 08:22:50;;;;;;;4.57;2.70;;;;;;;13.71;51.28;100367.13;5094781;28;20099;-72
2022/05/26 08:25:15;;;;;;;4.63;2.70;;;;;;;13.84;51.21;100377.94;5112960;28;20130;-67
2022/05/26 08:27:41;;;;;;;4.50;2.00;;;;;;;13.73;50.49;100336.47;5094847;28;20114;-67
2022/05/26 08:30:08;;;;;;;3.63;1.77;;;;;;;13.95;49.18;100366.72;5113145;28;20402;-74
2022/05/26 08:32:33;;;;;;;7.37;2.70;;;;;;;13.86;49.99;100363.31;5113093;28;20031;-70
2022/05/26 08:35:01;;;;;;;3.07;2.00;;;;;;;13.88;49.12;100366.66;5113449;28;20050;-66
2022/05/26 08:37:29;;;;;;;8.70;2.60;;;;;;;13.87;49.51;100359.63;5113088;28;20036;-69
2022/05/26 08:39:54;;;;;;;6.20;1.87;;;;;;;13.93;49.78;100348.16;5113128;28;20035;-71
2022/05/26 08:42:28;;;;;;;6.73;2.00;;;;;;;14.11;49.03;100357.53;5112829;28;20081;-72
2022/05/26 08:44:59;;;;;;;6.50;2.33;;;;;;;14.05;49.42;100358.34;5094594;28;20482;-71
2022/05/26 08:47:32;;;;;;;6.20;1.83;;;;;;;14.14;49.77;100360.66;5112390;28;20084;-69
2022/05/26 08:50:15;;;;;;;4.40;1.60;;;;;;;14.23;49.24;100347.97;5112693;28;20036;-72
2022/05/26 08:52:55;;;;;;;3.97;2.10;;;;;;;14.34;48.34;100342.03;5095447;28;20088;-72
2022/05/26 08:55:46;;;;;;;2.27;1.80;;;;;;;14.55;48.19;100346.53;5094685;28;20031;-72
2022/05/26 08:58:18;;;;;;;7.70;2.60;;;;;;;14.47;49.75;100344.84;5100736;28;20494;-69
2022/05/26 09:00:47;;;;;;;4.63;2.30;;;;;;;14.47;47.83;100339.50;5112774;28;20494;-70
2022/05/26 09:03:28;;;;;;;3.83;1.77;;;;;;;14.61;47.55;100342.22;5113130;28;20035;-69
2022/05/26 09:06:12;;;;;;;6.30;1.90;;;;;;;14.74;48.45;100328.88;5094689;28;20132;-69
2022/05/26 09:14:19;;;;;;;3.23;2.00;;;;;;;15.09;47.71;100335.81;5112717;28;20047;-65
2022/05/26 09:16:45;;;;;;;4.80;2.10;;;;;;;15.06;46.77;100333.53;5112421;28;20520;-73
2022/05/26 09:19:12;;;;;;;2.20;1.90;;;;;;;15.07;46.42;100323.63;5112396;28;20035;-67
2022/05/26 09:21:39;;;;;;;6.70;2.10;;;;;;;15.01;46.67;100327.94;5112397;28;20164;-64
2022/05/26 09:24:32;;;;;;;5.03;1.50;;;;;;;14.92;46.17;100329.16;5112361;28;20130;-71
2022/05/26 09:27:23;;;;;;;3.13;1.83;;;;;;;14.78;46.22;100319.41;5112326;28;20476;-67
2022/05/26 09:29:49;;;;;;;5.50;1.83;;;;;;;14.63;46.17;100324.09;5112438;28;20032;-70
2022/05/26 09:32:18;;;;;;;5.07;2.00;;;;;;;14.56;46.91;100316.03;5112535;28;20035;-72
2022/05/26 09:35:03;;;;;;;5.13;2.00;;;;;;;14.55;46.91;100314.38;5112282;28;20032;-71
2022/05/26 09:37:44;;;;;;;2.57;1.80;;;;;;;14.56;46.55;100294.59;5112275;28;20035;-74
2022/05/26 09:40:24;;;;;;;4.47;2.30;;;;;;;14.77;47.00;100301.69;5093846;28;20031;-73
2022/05/26 09:43:05;;;;;;;24.90;2.63;;;;;;;14.77;46.71;100309.72;5112272;28;20024;-68
2022/05/26 09:45:44;;;;;;;7.77;2.10;;;;;;;14.73;46.20;100289.69;5093565;28;20042;-80
2022/05/26 09:48:35;;;;;;;5.10;2.20;;;;;;;14.83;47.40;100300.88;5112049;28;20447;-75
2022/05/26 09:51:25;;;;;;;6.47;2.87;;;;;;;14.79;47.04;100299.63;5104928;28;20065;-76
2022/05/26 09:53:55;;;;;;;7.40;2.33;;;;;;;14.81;46.66;100302.94;5112228;28;20032;-70
2022/05/26 09:56:35;;;;;;;2.40;1.83;;;;;;;14.88;46.54;100287.69;5111980;28;20028;-72
2022/05/26 09:59:32;;;;;;;10.60;2.53;;;;;;;15.00;47.95;100296.78;5114355;28;20044;-77
2022/05/26 10:02:36;;;;;;;5.33;2.37;;;;;;;15.07;47.18;100297.66;5115913;28;20032;-75
2022/05/26 10:05:02;;;;;;;8.97;2.07;;;;;;;15.03;47.77;100291.00;5115758;28;20070;-67
2022/05/26 10:07:46;;;;;;;2.73;1.90;;;;;;;15.06;47.19;100289.81;5115698;28;20051;-71
2022/05/26 10:10:34;;;;;;;4.83;2.30;;;;;;;15.19;47.46;100298.69;5116017;28;20064;-71
2022/05/26 10:13:24;;;;;;;15.63;2.60;;;;;;;15.03;47.16;100280.28;5099888;28;20076;-68
2022/05/26 10:16:24;;;;;;;6.73;2.97;;;;;;;15.02;47.22;100293.91;5115839;28;20035;-65
2022/05/26 10:18:56;;;;;;;4.87;2.37;;;;;;;14.96;49.47;100284.81;5115876;28;20048;-67
2022/05/26 10:21:50;;;;;;;9.33;2.50;;;;;;;14.82;48.41;100283.13;5115158;28;20047;-66
2022/05/26 10:24:19;;;;;;;4.07;1.93;;;;;;;14.62;49.45;100282.22;5115610;28;20046;-65
2022/05/26 10:27:20;;;;;;;8.02;2.28;;;;;;;14.41;50.31;100275.09;5115513;28;20085;-66
2022/05/26 10:30:10;;;;;;;4.97;2.27;;;;;;;14.29;52.79;100276.69;5115180;28;20104;-68
2022/05/26 10:33:00;;;;;;;3.77;2.17;;;;;;;14.33;53.55;100270.75;5115022;28;20111;-68
2022/05/26 10:35:40;;;;;;;5.27;2.20;;;;;;;14.38;52.90;100265.63;5115115;28;20407;-67
2022/05/26 10:38:42;;;;;;;4.83;2.33;;;;;;;14.39;51.86;100261.09;5114967;28;20512;-64
2022/05/26 10:41:30;;;;;;;10.47;2.63;;;;;;;14.36;52.46;100264.16;5115182;28;20071;-64
2022/05/26 10:44:12;;;;;;;6.53;2.60;;;;;;;14.31;51.87;100261.25;5115088;28;20389;-66
2022/05/26 10:46:42;;;;;;;9.37;2.57;;;;;;;14.37;52.51;100260.44;5116006;28;20039;-68
2022/05/26 10:49:16;;;;;;;8.47;3.03;;;;;;;14.35;51.52;100249.94;5115372;28;20092;-70
2022/05/26 10:51:48;;;;;;;4.30;2.37;;;;;;;14.31;51.09;100242.50;5115057;28;20035;-74
2022/05/26 10:54:53;;;;;;;8.37;2.33;;;;;;;14.27;51.36;100258.16;5115038;28;20509;-72
2022/05/26 10:58:02;;;;;;;7.60;2.80;;;;;;;14.34;52.04;100256.31;5114832;28;20036;-74
2022/05/26 11:00:30;;;;;;;6.33;2.60;;;;;;;14.19;52.15;100212.81;5096886;28;20139;-75
2022/05/26 11:03:01;;;;;;;4.63;2.17;;;;;;;14.54;52.61;100241.19;5115363;28;20044;-79
2022/05/26 11:05:47;;;;;;;3.33;2.47;;;;;;;14.62;52.00;100231.31;5114844;28;20134;-69
2022/05/26 11:08:26;;;;;;;4.00;2.43;;;;;;;14.70;54.45;100234.63;5114563;28;20146;-73
2022/05/26 11:11:01;;;;;;;8.07;2.65;;;;;;;14.73;53.49;100236.91;5113810;28;20048;-72
2022/05/26 11:13:39;;;;;;;6.97;2.50;;;;;;;14.80;53.47;100219.00;5114420;28;20023;-71
2022/05/26 11:19:32;;;;;;;3.33;2.50;;;;;;;14.83;53.94;100225.81;5114922;28;20351;-71
2022/05/26 11:21:59;;;;;;;6.05;2.25;;;;;;;14.84;55.25;100216.75;5114485;28;20443;-75
2022/05/26 11:24:25;;;;;;;3.57;2.27;;;;;;;14.84;54.08;100206.03;5114541;28;20063;-72
2022/05/26 11:26:54;;;;;;;5.83;2.40;;;;;;;14.95;53.23;100205.41;5114517;28;20498;-71
2022/05/26 11:29:25;;;;;;;4.53;3.40;;;;;;;15.02;55.05;100224.16;5114287;28;20042;-72
2022/05/26 11:37:52;;;;;;;4.77;2.80;;;;;;;15.15;54.63;100210.78;5113642;28;20036;-71
2022/05/26 11:40:28;;;;;;;4.97;3.40;;;;;;;15.19;53.23;100206.66;5113862;28;20039;-72
2022/05/26 11:42:57;;;;;;;3.27;2.33;;;;;;;15.23;52.52;100209.75;5113466;28;20209;-68
2022/05/26 11:45:25;;;;;;;3.17;2.58;;;;;;;15.16;53.64;100199.84;5113352;28;20405;-67
2022/05/26 11:48:00;;;;;;;6.20;2.38;;;;;;;15.04;54.11;100206.06;5113844;28;20462;-70
2022/05/26 11:50:29;;;;;;;7.47;2.90;;;;;;;14.94;55.69;100201.06;5095783;28;20063;-69
2022/05/26 11:52:54;;;;;;;5.18;2.38;;;;;;;14.83;54.83;100194.47;5113887;28;20096;-68
2022/05/26 11:55:50;;;;;;;4.53;2.87;;;;;;;14.85;55.29;100196.94;5114076;28;20585;-67
2022/05/26 11:58:29;;;;;;;4.73;2.30;;;;;;;14.87;55.05;100197.56;5112665;28;20130;-66
2022/05/26 12:01:19;;;;;;;5.23;3.03;;;;;;;14.71;53.89;100190.72;5113200;28;20074;-70
2022/05/26 12:03:54;;;;;;;4.07;2.60;;;;;;;14.73;53.76;100188.66;5114460;28;20524;-69
2022/05/26 12:06:34;;;;;;;2.83;2.33;;;;;;;14.55;53.32;100193.78;5112854;28;20113;-67
2022/05/26 12:09:02;;;;;;;4.70;2.37;;;;;;;14.45;54.68;100190.66;5112734;28;20045;-67
2022/05/26 12:19:38;;;;;;;5.10;2.83;;;;;;;14.41;54.49;100173.31;5112436;28;20066;-65
2022/05/26 12:22:21;;;;;;;5.13;3.17;;;;;;;14.35;54.81;100179.47;5112220;28;20053;-70
2022/05/26 12:24:58;;;;;;;5.00;2.43;;;;;;;14.34;55.39;100167.94;5113414;28;20042;-71
2022/05/26 12:27:54;;;;;;;4.70;3.13;;;;;;;14.39;55.63;100168.16;5114572;28;20035;-67
2022/05/26 12:30:38;;;;;;;2.50;2.20;;;;;;;14.24;55.97;100168.31;5113056;28;20027;-69
2022/05/26 12:33:19;;;;;;;4.73;2.00;;;;;;;14.11;57.21;100162.06;5112915;28;20119;-68
2022/05/26 12:35:48;;;;;;;8.87;4.00;;;;;;;14.01;57.06;100145.56;5112906;28;20035;-67
2022/05/26 12:38:32;;;;;;;2.73;2.53;;;;;;;13.97;56.69;100149.66;5112697;28;20035;-68
2022/05/26 12:41:26;;;;;;;7.23;2.13;;;;;;;13.97;57.90;100149.66;5112584;28;20031;-68
2022/05/26 12:44:32;;;;;;;6.47;2.70;;;;;;;13.83;58.79;100141.56;5112830;28;20064;-66